createdAt,value
2023-02-12T00:01:41.035Z,-20.84
2023-02-12T00:06:43.744Z,-21.11
2023-02-12T00:11:46.395Z,-21.10
2023-02-12T00:16:49.062Z,-21.20
2023-02-12T00:21:51.737Z,-21.34
2023-02-12T00:26:54.404Z,-21.35
2023-02-12T00:31:57.260Z,-21.33
2023-02-12T00:37:02.778Z,-21.35
2023-02-12T00:42:05.718Z,-21.39
2023-02-12T00:47:08.639Z,-21.43
2023-02-12T00:52:11.821Z,-21.50
2023-02-12T00:57:14.651Z,-21.51
2023-02-12T01:02:18.526Z,-21.56
2023-02-12T01:07:22.645Z,-21.64
2023-02-12T01:12:25.481Z,-21.62
2023-02-12T01:17:30.149Z,-21.65
2023-02-12T01:22:34.833Z,-21.68
2023-02-12T01:27:38.369Z,-21.67
2023-02-12T01:32:41.108Z,-21.69
2023-02-12T01:37:44.149Z,-21.84
2023-02-12T01:42:46.818Z,-21.79
2023-02-12T01:47:49.650Z,-21.88
2023-02-12T01:52:55.451Z,-21.92
2023-02-12T01:57:58.171Z,-21.89
2023-02-12T02:03:02.680Z,-21.89
2023-02-12T02:08:05.821Z,-21.87
2023-02-12T02:13:27.298Z,-21.76
2023-02-12T02:18:35.854Z,-21.69
2023-02-12T02:24:15.028Z,-21.48
2023-02-12T02:29:43.657Z,-21.39
2023-02-12T02:34:54.302Z,-21.41
2023-02-12T02:40:03.082Z,-21.20
2023-02-12T02:45:30.512Z,-21.10
2023-02-12T02:50:35.914Z,-21.17
2023-02-12T02:55:43.866Z,-21.13
2023-02-12T03:00:51.250Z,-21.18
2023-02-12T03:05:57.289Z,-21.32
2023-02-12T03:11:11.851Z,-21.19
2023-02-12T03:16:31.464Z,-20.72
2023-02-12T03:22:23.418Z,-20.43
2023-02-12T03:27:44.967Z,-20.40
2023-02-12T03:32:47.635Z,-20.35
2023-02-12T03:38:12.460Z,-20.39
2023-02-12T03:43:23.615Z,-20.39
2023-02-12T03:48:55.503Z,-20.45
2023-02-12T03:53:58.436Z,-20.35
2023-02-12T03:59:01.312Z,-20.31
2023-02-12T04:04:07.118Z,-20.25
2023-02-12T04:09:11.036Z,-20.18
2023-02-12T04:14:48.670Z,-20.34
2023-02-12T04:20:00.457Z,-20.10
2023-02-12T04:25:29.366Z,-19.95
2023-02-12T04:30:44.015Z,-19.77
2023-02-12T04:35:55.972Z,-19.58
2023-02-12T04:40:59.075Z,-19.48
2023-02-12T04:46:02.658Z,-19.14
2023-02-12T04:51:05.628Z,-18.90
2023-02-12T04:56:12.233Z,-18.77
2023-02-12T05:01:15.370Z,-18.73
2023-02-12T05:06:18.078Z,-18.73
2023-02-12T05:11:20.795Z,-18.65
2023-02-12T05:16:23.662Z,-18.63
2023-02-12T05:21:26.440Z,-18.49
2023-02-12T05:26:29.177Z,-18.30
2023-02-12T05:31:31.980Z,-18.14
2023-02-12T05:36:34.829Z,-17.98
2023-02-12T05:41:37.734Z,-17.82
2023-02-12T05:46:40.714Z,-17.52
2023-02-12T05:51:43.466Z,-17.24
2023-02-12T05:56:47.904Z,-17.00
2023-02-12T06:01:51.993Z,-16.63
2023-02-12T06:06:56.168Z,-16.35
2023-02-12T06:11:58.806Z,-16.08
2023-02-12T06:17:01.526Z,-15.90
2023-02-12T06:22:04.323Z,-15.52
2023-02-12T06:27:07.099Z,-15.32
2023-02-12T06:32:09.837Z,-15.02
2023-02-12T06:37:12.881Z,-14.80
2023-02-12T06:42:15.683Z,-14.56
2023-02-12T06:47:18.466Z,-14.48
2023-02-12T06:52:21.968Z,-14.16
2023-02-12T06:57:24.711Z,-13.98
2023-02-12T07:02:27.558Z,-13.70
2023-02-12T07:07:30.515Z,-13.51
2023-02-12T07:12:34.371Z,-13.22
2023-02-12T07:17:37.214Z,-13.04
2023-02-12T07:22:40.048Z,-12.87
2023-02-12T07:27:42.716Z,-12.69
2023-02-12T07:32:45.472Z,-12.63
2023-02-12T07:37:48.032Z,-12.36
2023-02-12T07:42:56.107Z,-12.26
2023-02-12T07:47:59.006Z,-12.06
2023-02-12T07:53:02.077Z,-11.87
2023-02-12T07:58:04.839Z,-11.61
2023-02-12T08:03:07.558Z,-11.42
2023-02-12T08:08:10.171Z,-11.23
2023-02-12T08:13:12.795Z,-11.07
2023-02-12T08:18:15.435Z,-10.95
2023-02-12T08:23:18.128Z,-10.76
2023-02-12T08:28:20.907Z,-10.63
2023-02-12T08:33:23.806Z,-10.47
2023-02-12T08:38:26.727Z,-10.37
2023-02-12T08:43:29.571Z,-10.26
2023-02-12T08:48:32.716Z,-10.14
2023-02-12T08:53:35.767Z,-10.02
2023-02-12T08:58:38.592Z,-9.92
2023-02-12T09:03:41.276Z,-9.81
2023-02-12T09:08:44.393Z,-9.72
2023-02-12T09:13:48.083Z,-9.60
2023-02-12T09:18:50.781Z,-9.52
2023-02-12T09:23:53.550Z,-9.47
2023-02-12T09:28:56.667Z,-9.34
2023-02-12T09:34:05.135Z,-9.26
2023-02-12T09:39:07.853Z,-9.14
2023-02-12T09:44:32.267Z,-9.00
2023-02-12T09:49:47.868Z,-8.93
2023-02-12T09:54:51.169Z,-8.96
2023-02-12T09:59:59.027Z,-8.74
2023-02-12T10:05:02.597Z,-8.76
2023-02-12T10:10:11.367Z,-8.72
2023-02-12T10:15:33.239Z,-8.72
2023-02-12T10:20:57.457Z,-8.75
2023-02-12T10:26:09.755Z,-8.86
2023-02-12T10:31:32.316Z,-8.88
2023-02-12T10:36:57.015Z,-8.99
2023-02-12T10:42:35.264Z,-8.99
2023-02-12T10:47:37.874Z,-9.05
2023-02-12T10:53:03.671Z,-9.18
2023-02-12T10:58:19.169Z,-9.21
2023-02-12T11:03:24.453Z,-9.33
2023-02-12T11:08:30.226Z,-9.45
2023-02-12T11:13:33.012Z,-9.53
2023-02-12T11:18:37.034Z,-9.62
2023-02-12T11:23:44.303Z,-9.71
2023-02-12T11:29:01.566Z,-9.83
2023-02-12T11:34:20.127Z,-9.88
2023-02-12T11:39:31.004Z,-9.96
2023-02-12T11:44:38.492Z,-10.14
2023-02-12T11:49:51.566Z,-10.02
2023-02-12T11:54:57.627Z,-10.08
2023-02-12T12:00:02.242Z,-10.15
2023-02-12T12:05:13.804Z,-10.21
2023-02-12T12:10:32.209Z,-10.28
2023-02-12T12:16:01.881Z,-10.26
2023-02-12T12:21:25.623Z,-10.30
2023-02-12T12:26:30.865Z,-10.40
2023-02-12T12:31:39.646Z,-10.64
2023-02-12T12:37:20.003Z,-10.58
2023-02-12T12:42:53.730Z,-10.64
2023-02-12T12:48:16.426Z,-10.68
2023-02-12T12:53:31.133Z,-10.68
2023-02-12T12:59:24.523Z,-10.77
2023-02-12T13:04:32.099Z,-10.81
2023-02-12T13:09:49.014Z,-10.84
2023-02-12T13:15:07.230Z,-10.87
2023-02-12T13:20:30.177Z,-10.93
2023-02-12T13:26:15.817Z,-11.02
2023-02-12T13:31:33.053Z,-11.11
2023-02-12T13:36:37.741Z,-11.20
2023-02-12T13:41:40.869Z,-11.23
2023-02-12T13:47:01.057Z,-11.33
2023-02-12T13:52:07.525Z,-11.40
2023-02-12T13:57:15.048Z,-11.43
2023-02-12T14:02:39.205Z,-11.47
2023-02-12T14:07:53.162Z,-11.47
2023-02-12T14:12:56.883Z,-11.52
2023-02-12T14:18:02.605Z,-11.55
2023-02-12T14:23:44.157Z,-11.61
2023-02-12T14:28:57.228Z,-11.65
2023-02-12T14:34:22.498Z,-11.72
2023-02-12T14:39:25.311Z,-11.71
2023-02-12T14:44:29.343Z,-11.68
2023-02-12T14:49:37.192Z,-11.68
2023-02-12T14:54:49.568Z,-11.73
2023-02-12T15:00:02.760Z,-11.79
2023-02-12T15:05:21.185Z,-11.79
2023-02-12T15:10:28.275Z,-11.80
2023-02-12T15:15:38.076Z,-11.80
2023-02-12T15:20:52.227Z,-11.82
2023-02-12T15:25:55.271Z,-11.78
2023-02-12T15:30:58.227Z,-11.82
2023-02-12T15:36:02.954Z,-11.84
2023-02-12T15:41:06.890Z,-11.85
2023-02-12T15:46:17.279Z,-11.87
2023-02-12T15:51:35.249Z,-11.98
2023-02-12T15:56:41.228Z,-12.05
2023-02-12T16:01:54.190Z,-12.07
2023-02-12T16:06:57.251Z,-12.16
2023-02-12T16:12:03.352Z,-12.17
2023-02-12T16:17:22.404Z,-12.22
2023-02-12T16:22:31.321Z,-12.35
2023-02-12T16:27:35.321Z,-12.46
2023-02-12T16:32:46.842Z,-12.51
2023-02-12T16:37:52.181Z,-12.59
2023-02-12T16:42:54.826Z,-12.69
2023-02-12T16:48:09.454Z,-12.77
2023-02-12T16:53:35.915Z,-12.91
2023-02-12T16:58:38.810Z,-12.95
2023-02-12T17:03:41.813Z,-13.01
2023-02-12T17:08:44.639Z,-13.04
2023-02-12T17:13:49.080Z,-13.07
2023-02-12T17:18:51.790Z,-13.18
2023-02-12T17:23:54.832Z,-13.32
2023-02-12T17:29:05.640Z,-13.41
2023-02-12T17:34:08.581Z,-13.54
2023-02-12T17:39:12.870Z,-13.60
2023-02-12T17:44:16.667Z,-13.67
2023-02-12T17:49:19.538Z,-13.71
2023-02-12T17:54:22.182Z,-13.72
2023-02-12T17:59:25.042Z,-13.76
2023-02-12T18:04:27.989Z,-13.77
2023-02-12T18:09:31.950Z,-13.82
2023-02-12T18:14:34.726Z,-13.87
2023-02-12T18:19:37.576Z,-13.90
2023-02-12T18:24:41.677Z,-13.92
2023-02-12T18:29:44.712Z,-13.88
2023-02-12T18:34:47.447Z,-13.88
2023-02-12T18:39:50.155Z,-13.92
2023-02-12T18:44:52.890Z,-13.91
2023-02-12T18:49:58.243Z,-13.95
2023-02-12T18:55:00.926Z,-13.90
2023-02-12T19:00:05.317Z,-14.00
2023-02-12T19:05:10.524Z,-13.96
2023-02-12T19:10:13.932Z,-14.04
2023-02-12T19:15:17.801Z,-14.02
2023-02-12T19:20:20.332Z,-14.04
2023-02-12T19:25:22.982Z,-14.11
2023-02-12T19:30:25.642Z,-14.11
2023-02-12T19:35:28.432Z,-14.16
2023-02-12T19:40:32.484Z,-14.15
2023-02-12T19:45:34.986Z,-14.13
2023-02-12T19:50:37.632Z,-14.17
2023-02-12T19:55:40.276Z,-14.32
2023-02-12T20:00:43.289Z,-14.14
2023-02-12T20:05:52.205Z,-14.04
2023-02-12T20:10:55.247Z,-13.91
2023-02-12T20:16:05.457Z,-13.87
2023-02-12T20:21:16.659Z,-13.85
2023-02-12T20:26:20.194Z,-13.85
2023-02-12T20:31:29.273Z,-13.86
2023-02-12T20:36:34.383Z,-13.89
2023-02-12T20:41:37.606Z,-13.90
2023-02-12T20:46:42.344Z,-13.93
2023-02-12T20:51:46.001Z,-13.84
2023-02-12T20:56:50.126Z,-13.85
2023-02-12T21:01:52.885Z,-13.99
2023-02-12T21:06:55.578Z,-14.03
2023-02-12T21:11:59.494Z,-14.12
2023-02-12T21:17:02.292Z,-14.21
2023-02-12T21:22:04.946Z,-14.34
2023-02-12T21:27:07.865Z,-14.33
2023-02-12T21:32:10.923Z,-14.25
2023-02-12T21:37:13.818Z,-14.26
2023-02-12T21:42:16.564Z,-14.23
2023-02-12T21:47:19.502Z,-14.26
2023-02-12T21:52:22.114Z,-14.45
2023-02-12T21:57:24.887Z,-14.58
2023-02-12T22:02:27.588Z,-14.61
2023-02-12T22:07:30.247Z,-14.74
2023-02-12T22:12:35.084Z,-14.87
2023-02-12T22:17:37.801Z,-14.99
2023-02-12T22:22:40.837Z,-14.99
2023-02-12T22:27:43.483Z,-15.00
2023-02-12T22:32:46.411Z,-15.14
2023-02-12T22:37:49.324Z,-15.15
2023-02-12T22:42:52.025Z,-15.25
2023-02-12T22:47:54.780Z,-15.33
2023-02-12T22:52:57.484Z,-15.36
2023-02-12T22:58:00.195Z,-15.28
2023-02-12T23:03:02.790Z,-15.33
2023-02-12T23:08:06.525Z,-15.33
2023-02-12T23:13:10.453Z,-15.34
2023-02-12T23:18:13.146Z,-15.27
2023-02-12T23:23:16.365Z,-15.24
2023-02-12T23:28:19.591Z,-15.24
2023-02-12T23:33:23.143Z,-15.35
2023-02-12T23:38:26.021Z,-15.33
2023-02-12T23:43:28.883Z,-15.33
2023-02-12T23:48:31.645Z,-15.36
2023-02-12T23:53:34.511Z,-15.36
2023-02-12T23:58:37.346Z,-15.33
